sensor_id;sensor_type;location;lat;lon;timestamp;temperature;humidity
20438;DHT22;17436;50.338;8.810;2022-07-10T00:00:25;17.50;66.10
20438;DHT22;17436;50.338;8.810;2022-07-10T00:02:53;17.50;67.00
20438;DHT22;17436;50.338;8.810;2022-07-10T00:05:21;17.40;65.60
20438;DHT22;17436;50.338;8.810;2022-07-10T00:07:48;17.40;66.40
20438;DHT22;17436;50.338;8.810;2022-07-10T00:10:15;17.50;63.50
20438;DHT22;17436;50.338;8.810;2022-07-10T00:12:42;17.50;63.90
20438;DHT22;17436;50.338;8.810;2022-07-10T00:15:09;17.40;63.30
20438;DHT22;17436;50.338;8.810;2022-07-10T00:17:36;17.30;64.30
20438;DHT22;17436;50.338;8.810;2022-07-10T00:20:07;17.20;64.70
20438;DHT22;17436;50.338;8.810;2022-07-10T00:22:35;17.20;64.20
20438;DHT22;17436;50.338;8.810;2022-07-10T00:25:05;17.20;64.80
20438;DHT22;17436;50.338;8.810;2022-07-10T00:27:35;17.30;63.40
20438;DHT22;17436;50.338;8.810;2022-07-10T00:30:01;17.30;62.40
20438;DHT22;17436;50.338;8.810;2022-07-10T00:32:29;17.30;63.40
20438;DHT22;17436;50.338;8.810;2022-07-10T00:34:56;17.20;63.20
20438;DHT22;17436;50.338;8.810;2022-07-10T00:37:25;17.20;64.50
20438;DHT22;17436;50.338;8.810;2022-07-10T00:39:53;17.10;65.30
20438;DHT22;17436;50.338;8.810;2022-07-10T00:42:20;17.10;65.00
20438;DHT22;17436;50.338;8.810;2022-07-10T00:44:47;17.10;63.50
20438;DHT22;17436;50.338;8.810;2022-07-10T00:47:14;17.10;62.50
20438;DHT22;17436;50.338;8.810;2022-07-10T00:49:44;17.10;64.40
20438;DHT22;17436;50.338;8.810;2022-07-10T00:52:13;17.10;62.20
20438;DHT22;17436;50.338;8.810;2022-07-10T00:54:43;17.00;64.10
20438;DHT22;17436;50.338;8.810;2022-07-10T00:57:10;17.00;61.90
20438;DHT22;17436;50.338;8.810;2022-07-10T00:59:38;17.10;65.70
20438;DHT22;17436;50.338;8.810;2022-07-10T01:02:05;17.20;62.80
20438;DHT22;17436;50.338;8.810;2022-07-10T01:04:32;17.10;63.70
20438;DHT22;17436;50.338;8.810;2022-07-10T01:07:03;17.00;63.70
20438;DHT22;17436;50.338;8.810;2022-07-10T01:09:30;17.00;62.10
20438;DHT22;17436;50.338;8.810;2022-07-10T01:12:01;17.00;58.00
20438;DHT22;17436;50.338;8.810;2022-07-10T01:14:28;16.90;59.90
20438;DHT22;17436;50.338;8.810;2022-07-10T01:16:55;16.80;58.40
20438;DHT22;17436;50.338;8.810;2022-07-10T01:19:23;16.80;62.30
20438;DHT22;17436;50.338;8.810;2022-07-10T01:21:51;16.80;60.20
20438;DHT22;17436;50.338;8.810;2022-07-10T01:24:18;16.80;62.20
20438;DHT22;17436;50.338;8.810;2022-07-10T01:26:44;16.80;59.00
20438;DHT22;17436;50.338;8.810;2022-07-10T01:29:11;16.70;58.50
20438;DHT22;17436;50.338;8.810;2022-07-10T01:31:38;16.60;63.70
20438;DHT22;17436;50.338;8.810;2022-07-10T01:34:07;16.70;62.60
20438;DHT22;17436;50.338;8.810;2022-07-10T01:36:35;16.70;60.00
20438;DHT22;17436;50.338;8.810;2022-07-10T01:39:04;16.70;59.10
20438;DHT22;17436;50.338;8.810;2022-07-10T01:41:31;16.60;57.80
20438;DHT22;17436;50.338;8.810;2022-07-10T01:43:57;16.70;57.10
20438;DHT22;17436;50.338;8.810;2022-07-10T01:46:24;16.60;58.70
20438;DHT22;17436;50.338;8.810;2022-07-10T01:48:51;16.70;58.60
20438;DHT22;17436;50.338;8.810;2022-07-10T01:51:20;16.60;57.80
20438;DHT22;17436;50.338;8.810;2022-07-10T01:53:46;16.70;56.20
20438;DHT22;17436;50.338;8.810;2022-07-10T01:56:15;16.60;59.50
20438;DHT22;17436;50.338;8.810;2022-07-10T01:58:42;16.60;53.60
20438;DHT22;17436;50.338;8.810;2022-07-10T02:01:10;16.50;58.00
20438;DHT22;17436;50.338;8.810;2022-07-10T02:03:37;16.40;58.20
20438;DHT22;17436;50.338;8.810;2022-07-10T02:06:18;16.40;60.00
20438;DHT22;17436;50.338;8.810;2022-07-10T02:08:45;16.30;58.20
20438;DHT22;17436;50.338;8.810;2022-07-10T02:11:11;16.40;60.00
20438;DHT22;17436;50.338;8.810;2022-07-10T02:13:40;16.30;62.40
20438;DHT22;17436;50.338;8.810;2022-07-10T02:16:07;16.50;62.50
20438;DHT22;17436;50.338;8.810;2022-07-10T02:18:34;16.30;61.10
20438;DHT22;17436;50.338;8.810;2022-07-10T02:21:25;16.30;62.10
20438;DHT22;17436;50.338;8.810;2022-07-10T02:23:52;16.40;61.40
20438;DHT22;17436;50.338;8.810;2022-07-10T02:26:19;16.40;61.10
20438;DHT22;17436;50.338;8.810;2022-07-10T02:28:47;16.50;59.50
20438;DHT22;17436;50.338;8.810;2022-07-10T02:31:15;16.40;59.50
20438;DHT22;17436;50.338;8.810;2022-07-10T02:33:42;16.30;59.30
20438;DHT22;17436;50.338;8.810;2022-07-10T02:36:09;16.20;60.00
20438;DHT22;17436;50.338;8.810;2022-07-10T02:38:35;16.30;58.30
20438;DHT22;17436;50.338;8.810;2022-07-10T02:41:03;16.20;58.20
20438;DHT22;17436;50.338;8.810;2022-07-10T02:43:30;16.10;55.30
20438;DHT22;17436;50.338;8.810;2022-07-10T02:45:58;16.10;57.80
20438;DHT22;17436;50.338;8.810;2022-07-10T02:48:24;16.20;57.90
20438;DHT22;17436;50.338;8.810;2022-07-10T02:50:51;16.10;54.00
20438;DHT22;17436;50.338;8.810;2022-07-10T02:53:19;16.10;56.80
20438;DHT22;17436;50.338;8.810;2022-07-10T02:55:45;15.90;55.50
20438;DHT22;17436;50.338;8.810;2022-07-10T02:58:12;15.90;57.50
20438;DHT22;17436;50.338;8.810;2022-07-10T03:00:40;16.00;56.00
20438;DHT22;17436;50.338;8.810;2022-07-10T03:03:09;16.00;56.50
20438;DHT22;17436;50.338;8.810;2022-07-10T03:05:37;16.00;53.10
20438;DHT22;17436;50.338;8.810;2022-07-10T03:08:04;15.80;52.90
20438;DHT22;17436;50.338;8.810;2022-07-10T03:10:31;15.90;54.60
20438;DHT22;17436;50.338;8.810;2022-07-10T03:12:58;15.80;52.90
20438;DHT22;17436;50.338;8.810;2022-07-10T03:15:27;15.80;54.30
20438;DHT22;17436;50.338;8.810;2022-07-10T03:17:54;15.90;54.70
20438;DHT22;17436;50.338;8.810;2022-07-10T03:20:22;15.80;54.00
20438;DHT22;17436;50.338;8.810;2022-07-10T03:22:49;15.80;55.80
20438;DHT22;17436;50.338;8.810;2022-07-10T03:25:16;15.80;52.90
20438;DHT22;17436;50.338;8.810;2022-07-10T03:27:43;15.70;52.80
20438;DHT22;17436;50.338;8.810;2022-07-10T03:30:10;15.60;52.70
20438;DHT22;17436;50.338;8.810;2022-07-10T03:32:37;15.50;52.60
20438;DHT22;17436;50.338;8.810;2022-07-10T03:35:04;15.70;52.80
20438;DHT22;17436;50.338;8.810;2022-07-10T03:37:32;15.60;52.70
20438;DHT22;17436;50.338;8.810;2022-07-10T03:39:59;15.60;52.70
20438;DHT22;17436;50.338;8.810;2022-07-10T03:42:26;15.50;47.40
20438;DHT22;17436;50.338;8.810;2022-07-10T03:44:53;15.50;50.50
20438;DHT22;17436;50.338;8.810;2022-07-10T03:47:21;15.40;52.50
20438;DHT22;17436;50.338;8.810;2022-07-10T03:49:47;15.60;52.70
20438;DHT22;17436;50.338;8.810;2022-07-10T03:52:15;15.50;53.60
20438;DHT22;17436;50.338;8.810;2022-07-10T03:54:43;15.40;52.50
20438;DHT22;17436;50.338;8.810;2022-07-10T03:57:10;15.00;57.90
20438;DHT22;17436;50.338;8.810;2022-07-10T03:59:54;15.20;57.60
20438;DHT22;17436;50.338;8.810;2022-07-10T04:02:21;15.40;58.00
20438;DHT22;17436;50.338;8.810;2022-07-10T04:04:47;15.60;56.50
20438;DHT22;17436;50.338;8.810;2022-07-10T04:07:14;15.70;57.70
20438;DHT22;17436;50.338;8.810;2022-07-10T04:09:43;15.70;52.80
20438;DHT22;17436;50.338;8.810;2022-07-10T04:12:09;15.60;53.20
20438;DHT22;17436;50.338;8.810;2022-07-10T04:14:36;15.40;52.50
20438;DHT22;17436;50.338;8.810;2022-07-10T04:17:04;15.60;55.70
20438;DHT22;17436;50.338;8.810;2022-07-10T04:19:30;15.40;55.50
20438;DHT22;17436;50.338;8.810;2022-07-10T04:21:57;15.50;57.00
20438;DHT22;17436;50.338;8.810;2022-07-10T04:24:24;15.60;54.20
20438;DHT22;17436;50.338;8.810;2022-07-10T04:26:52;15.40;54.80
20438;DHT22;17436;50.338;8.810;2022-07-10T04:29:19;15.40;58.60
20438;DHT22;17436;50.338;8.810;2022-07-10T04:31:45;15.50;57.30
20438;DHT22;17436;50.338;8.810;2022-07-10T04:34:12;15.60;58.10
20438;DHT22;17436;50.338;8.810;2022-07-10T04:36:39;15.60;56.50
20438;DHT22;17436;50.338;8.810;2022-07-10T04:39:05;15.80;57.20
20438;DHT22;17436;50.338;8.810;2022-07-10T04:41:32;15.80;55.30
20438;DHT22;17436;50.338;8.810;2022-07-10T04:44:00;15.70;55.80
20438;DHT22;17436;50.338;8.810;2022-07-10T04:46:27;15.50;56.60
20438;DHT22;17436;50.338;8.810;2022-07-10T04:48:55;15.40;63.10
20438;DHT22;17436;50.338;8.810;2022-07-10T04:51:22;15.40;61.80
20438;DHT22;17436;50.338;8.810;2022-07-10T04:53:49;15.70;59.80
20438;DHT22;17436;50.338;8.810;2022-07-10T04:56:16;15.90;61.00
20438;DHT22;17436;50.338;8.810;2022-07-10T04:58:43;16.00;53.10
20438;DHT22;17436;50.338;8.810;2022-07-10T05:01:11;16.00;56.40
20438;DHT22;17436;50.338;8.810;2022-07-10T05:03:37;15.90;54.70
20438;DHT22;17436;50.338;8.810;2022-07-10T05:06:04;15.80;56.90
20438;DHT22;17436;50.338;8.810;2022-07-10T05:08:31;15.80;54.70
20438;DHT22;17436;50.338;8.810;2022-07-10T05:10:59;15.90;53.00
20438;DHT22;17436;50.338;8.810;2022-07-10T05:13:26;16.00;54.80
20438;DHT22;17436;50.338;8.810;2022-07-10T05:15:53;15.90;53.00
20438;DHT22;17436;50.338;8.810;2022-07-10T05:18:21;16.10;53.20
20438;DHT22;17436;50.338;8.810;2022-07-10T05:20:48;16.10;55.60
20438;DHT22;17436;50.338;8.810;2022-07-10T05:23:15;16.20;53.30
20438;DHT22;17436;50.338;8.810;2022-07-10T05:25:42;16.10;53.20
20438;DHT22;17436;50.338;8.810;2022-07-10T05:28:09;16.20;53.30
20438;DHT22;17436;50.338;8.810;2022-07-10T05:30:35;16.20;52.90
20438;DHT22;17436;50.338;8.810;2022-07-10T05:33:05;16.10;54.20
20438;DHT22;17436;50.338;8.810;2022-07-10T05:35:33;16.10;53.20
20438;DHT22;17436;50.338;8.810;2022-07-10T05:38:00;16.30;54.80
20438;DHT22;17436;50.338;8.810;2022-07-10T05:40:27;16.30;53.40
20438;DHT22;17436;50.338;8.810;2022-07-10T05:42:55;16.20;53.30
20438;DHT22;17436;50.338;8.810;2022-07-10T05:45:23;16.30;53.40
20438;DHT22;17436;50.338;8.810;2022-07-10T05:47:50;16.30;53.40
20438;DHT22;17436;50.338;8.810;2022-07-10T05:50:16;16.20;53.40
20438;DHT22;17436;50.338;8.810;2022-07-10T05:52:44;16.40;52.10
20438;DHT22;17436;50.338;8.810;2022-07-10T05:55:11;16.50;49.50
20438;DHT22;17436;50.338;8.810;2022-07-10T05:57:38;16.20;49.50
20438;DHT22;17436;50.338;8.810;2022-07-10T06:00:06;16.10;52.10
20438;DHT22;17436;50.338;8.810;2022-07-10T06:02:33;16.00;52.00
20438;DHT22;17436;50.338;8.810;2022-07-10T06:05:01;16.10;51.40
20438;DHT22;17436;50.338;8.810;2022-07-10T06:07:28;16.30;48.80
20438;DHT22;17436;50.338;8.810;2022-07-10T06:09:56;16.40;50.30
20438;DHT22;17436;50.338;8.810;2022-07-10T06:12:23;16.50;44.70
20438;DHT22;17436;50.338;8.810;2022-07-10T06:14:50;16.60;46.00
20438;DHT22;17436;50.338;8.810;2022-07-10T06:17:17;16.70;43.50
20438;DHT22;17436;50.338;8.810;2022-07-10T06:19:44;16.60;44.00
20438;DHT22;17436;50.338;8.810;2022-07-10T06:22:10;16.80;44.20
20438;DHT22;17436;50.338;8.810;2022-07-10T06:24:58;16.80;44.70
20438;DHT22;17436;50.338;8.810;2022-07-10T06:27:26;16.70;43.90
20438;DHT22;17436;50.338;8.810;2022-07-10T06:29:53;16.70;38.20
20438;DHT22;17436;50.338;8.810;2022-07-10T06:32:19;16.70;41.40
20438;DHT22;17436;50.338;8.810;2022-07-10T06:34:46;16.70;42.60
20438;DHT22;17436;50.338;8.810;2022-07-10T06:37:13;16.70;40.90
20438;DHT22;17436;50.338;8.810;2022-07-10T06:39:40;16.70;38.30
20438;DHT22;17436;50.338;8.810;2022-07-10T06:42:08;16.80;43.40
20438;DHT22;17436;50.338;8.810;2022-07-10T06:44:35;16.90;39.70
20438;DHT22;17436;50.338;8.810;2022-07-10T06:47:03;16.70;40.50
20438;DHT22;17436;50.338;8.810;2022-07-10T06:49:47;16.80;34.80
20438;DHT22;17436;50.338;8.810;2022-07-10T06:52:15;16.90;32.20
20438;DHT22;17436;50.338;8.810;2022-07-10T06:54:42;16.90;30.70
20438;DHT22;17436;50.338;8.810;2022-07-10T06:57:11;16.80;29.10
20438;DHT22;17436;50.338;8.810;2022-07-10T06:59:38;16.90;29.20
20438;DHT22;17436;50.338;8.810;2022-07-10T07:02:05;16.80;29.10
20438;DHT22;17436;50.338;8.810;2022-07-10T07:04:31;16.70;26.40
20438;DHT22;17436;50.338;8.810;2022-07-10T07:06:59;16.70;31.10
20438;DHT22;17436;50.338;8.810;2022-07-10T07:09:31;16.60;30.60
20438;DHT22;17436;50.338;8.810;2022-07-10T07:11:57;16.60;29.00
20438;DHT22;17436;50.338;8.810;2022-07-10T07:14:26;16.60;27.90
20438;DHT22;17436;50.338;8.810;2022-07-10T07:16:53;16.60;29.00
20438;DHT22;17436;50.338;8.810;2022-07-10T07:19:26;16.80;28.30
20438;DHT22;17436;50.338;8.810;2022-07-10T07:21:58;16.80;26.20
20438;DHT22;17436;50.338;8.810;2022-07-10T07:24:42;16.80;27.60
20438;DHT22;17436;50.338;8.810;2022-07-10T07:27:10;16.80;29.10
20438;DHT22;17436;50.338;8.810;2022-07-10T07:29:38;16.90;28.20
20438;DHT22;17436;50.338;8.810;2022-07-10T07:32:05;16.90;25.80
20438;DHT22;17436;50.338;8.810;2022-07-10T07:34:32;16.60;26.40
20438;DHT22;17436;50.338;8.810;2022-07-10T07:37:00;16.70;29.00
20438;DHT22;17436;50.338;8.810;2022-07-10T07:39:27;16.90;27.10
20438;DHT22;17436;50.338;8.810;2022-07-10T07:41:54;16.80;29.10
20438;DHT22;17436;50.338;8.810;2022-07-10T07:44:21;16.70;29.00
20438;DHT22;17436;50.338;8.810;2022-07-10T07:46:49;16.80;29.10
20438;DHT22;17436;50.338;8.810;2022-07-10T07:49:16;16.80;24.10
20438;DHT22;17436;50.338;8.810;2022-07-10T07:51:42;17.00;23.60
20438;DHT22;17436;50.338;8.810;2022-07-10T07:54:09;16.80;21.60
20438;DHT22;17436;50.338;8.810;2022-07-10T07:56:36;16.90;22.30
20438;DHT22;17436;50.338;8.810;2022-07-10T07:59:06;16.90;23.80
20438;DHT22;17436;50.338;8.810;2022-07-10T08:01:33;16.90;24.60
20438;DHT22;17436;50.338;8.810;2022-07-10T08:04:01;16.80;23.80
20438;DHT22;17436;50.338;8.810;2022-07-10T08:06:27;17.00;23.50
20438;DHT22;17436;50.338;8.810;2022-07-10T08:08:54;17.20;23.00
20438;DHT22;17436;50.338;8.810;2022-07-10T08:11:21;17.10;20.90
20438;DHT22;17436;50.338;8.810;2022-07-10T08:13:48;17.00;20.80
20438;DHT22;17436;50.338;8.810;2022-07-10T08:16:15;16.90;21.00
20438;DHT22;17436;50.338;8.810;2022-07-10T08:18:41;17.00;20.90
20438;DHT22;17436;50.338;8.810;2022-07-10T08:21:09;17.10;24.30
20438;DHT22;17436;50.338;8.810;2022-07-10T08:23:36;17.20;22.20
20438;DHT22;17436;50.338;8.810;2022-07-10T08:26:04;17.30;18.80
20438;DHT22;17436;50.338;8.810;2022-07-10T08:28:30;17.10;16.80
20438;DHT22;17436;50.338;8.810;2022-07-10T08:30:57;17.30;18.10
20438;DHT22;17436;50.338;8.810;2022-07-10T08:33:24;17.50;17.70
20438;DHT22;17436;50.338;8.810;2022-07-10T08:35:50;17.50;17.10
20438;DHT22;17436;50.338;8.810;2022-07-10T08:38:20;17.40;18.70
20438;DHT22;17436;50.338;8.810;2022-07-10T08:40:46;17.40;18.00
20438;DHT22;17436;50.338;8.810;2022-07-10T08:43:13;17.50;14.90
20438;DHT22;17436;50.338;8.810;2022-07-10T08:45:41;17.70;17.00
20438;DHT22;17436;50.338;8.810;2022-07-10T08:48:09;17.80;18.50
20438;DHT22;17436;50.338;8.810;2022-07-10T08:50:42;17.90;16.50
20438;DHT22;17436;50.338;8.810;2022-07-10T08:53:13;18.00;13.80
20438;DHT22;17436;50.338;8.810;2022-07-10T08:55:43;18.00;14.40
20438;DHT22;17436;50.338;8.810;2022-07-10T08:58:11;17.90;12.90
20438;DHT22;17436;50.338;8.810;2022-07-10T09:00:38;17.90;13.10
20438;DHT22;17436;50.338;8.810;2022-07-10T09:03:06;17.60;12.90
20438;DHT22;17436;50.338;8.810;2022-07-10T09:05:33;17.70;15.10
20438;DHT22;17436;50.338;8.810;2022-07-10T09:08:01;17.60;13.10
20438;DHT22;17436;50.338;8.810;2022-07-10T09:10:28;17.60;14.10
20438;DHT22;17436;50.338;8.810;2022-07-10T09:12:57;17.80;15.70
20438;DHT22;17436;50.338;8.810;2022-07-10T09:15:27;17.90;15.80
20438;DHT22;17436;50.338;8.810;2022-07-10T09:17:58;17.90;14.90
20438;DHT22;17436;50.338;8.810;2022-07-10T09:20:31;18.00;14.40
20438;DHT22;17436;50.338;8.810;2022-07-10T09:22:58;18.00;13.80
20438;DHT22;17436;50.338;8.810;2022-07-10T09:25:32;18.10;15.90
20438;DHT22;17436;50.338;8.810;2022-07-10T09:28:03;18.20;16.40
20438;DHT22;17436;50.338;8.810;2022-07-10T09:30:33;18.10;13.80
20438;DHT22;17436;50.338;8.810;2022-07-10T09:33:21;18.20;15.80
20438;DHT22;17436;50.338;8.810;2022-07-10T09:35:59;18.20;13.20
20438;DHT22;17436;50.338;8.810;2022-07-10T09:38:57;18.50;14.20
20438;DHT22;17436;50.338;8.810;2022-07-10T09:41:27;18.80;13.70
20438;DHT22;17436;50.338;8.810;2022-07-10T09:43:58;18.90;13.40
20438;DHT22;17436;50.338;8.810;2022-07-10T09:46:33;19.00;11.10
20438;DHT22;17436;50.338;8.810;2022-07-10T09:49:02;19.10;11.70
20438;DHT22;17436;50.338;8.810;2022-07-10T09:51:31;19.10;10.10
20438;DHT22;17436;50.338;8.810;2022-07-10T09:54:01;19.00;10.10
20438;DHT22;17436;50.338;8.810;2022-07-10T09:56:37;18.70;10.10
20438;DHT22;17436;50.338;8.810;2022-07-10T09:59:09;18.70;11.80
20438;DHT22;17436;50.338;8.810;2022-07-10T10:01:36;18.80;12.10
20438;DHT22;17436;50.338;8.810;2022-07-10T10:04:04;18.80;9.90
20438;DHT22;17436;50.338;8.810;2022-07-10T10:06:33;18.80;9.90
20438;DHT22;17436;50.338;8.810;2022-07-10T10:09:04;18.90;10.00
20438;DHT22;17436;50.338;8.810;2022-07-10T10:11:33;19.00;10.50
20438;DHT22;17436;50.338;8.810;2022-07-10T10:14:04;19.10;5.80
20438;DHT22;17436;50.338;8.810;2022-07-10T10:16:35;19.10;8.20
20438;DHT22;17436;50.338;8.810;2022-07-10T10:19:02;19.10;7.00
20438;DHT22;17436;50.338;8.810;2022-07-10T10:21:46;19.10;2.70
20438;DHT22;17436;50.338;8.810;2022-07-10T10:24:14;19.30;4.90
20438;DHT22;17436;50.338;8.810;2022-07-10T10:26:41;19.90;7.70
20438;DHT22;17436;50.338;8.810;2022-07-10T10:29:09;20.10;6.40
20438;DHT22;17436;50.338;8.810;2022-07-10T10:31:37;19.90;1.00
20438;DHT22;17436;50.338;8.810;2022-07-10T10:34:05;19.90;3.00
20438;DHT22;17436;50.338;8.810;2022-07-10T10:36:45;19.80;1.00
20438;DHT22;17436;50.338;8.810;2022-07-10T10:39:14;19.70;2.10
20438;DHT22;17436;50.338;8.810;2022-07-10T10:41:44;19.70;2.40
20438;DHT22;17436;50.338;8.810;2022-07-10T10:44:28;19.70;2.30
20438;DHT22;17436;50.338;8.810;2022-07-10T10:47:04;19.60;1.00
20438;DHT22;17436;50.338;8.810;2022-07-10T10:49:55;19.80;2.00
20438;DHT22;17436;50.338;8.810;2022-07-10T10:52:27;20.10;1.00
20438;DHT22;17436;50.338;8.810;2022-07-10T10:55:05;20.50;1.00
20438;DHT22;17436;50.338;8.810;2022-07-10T10:57:41;20.40;1.00
20438;DHT22;17436;50.338;8.810;2022-07-10T11:00:32;20.30;1.00
20438;DHT22;17436;50.338;8.810;2022-07-10T11:03:14;20.50;1.00
20438;DHT22;17436;50.338;8.810;2022-07-10T11:05:42;20.50;1.00
20438;DHT22;17436;50.338;8.810;2022-07-10T11:08:10;20.30;1.00
20438;DHT22;17436;50.338;8.810;2022-07-10T11:10:38;20.00;1.00
20438;DHT22;17436;50.338;8.810;2022-07-10T11:13:06;20.00;1.00
20438;DHT22;17436;50.338;8.810;2022-07-10T11:15:34;20.10;1.00
20438;DHT22;17436;50.338;8.810;2022-07-10T11:18:06;20.60;1.00
20438;DHT22;17436;50.338;8.810;2022-07-10T11:20:36;20.80;1.00
20438;DHT22;17436;50.338;8.810;2022-07-10T11:23:16;20.70;1.00
20438;DHT22;17436;50.338;8.810;2022-07-10T11:25:49;20.90;1.00
20438;DHT22;17436;50.338;8.810;2022-07-10T11:28:36;20.60;1.00
20438;DHT22;17436;50.338;8.810;2022-07-10T11:31:07;20.50;1.00
20438;DHT22;17436;50.338;8.810;2022-07-10T11:33:39;20.40;1.00
20438;DHT22;17436;50.338;8.810;2022-07-10T11:36:11;20.40;1.00
20438;DHT22;17436;50.338;8.810;2022-07-10T11:38:39;20.40;1.00
20438;DHT22;17436;50.338;8.810;2022-07-10T11:41:12;20.40;1.00
20438;DHT22;17436;50.338;8.810;2022-07-10T11:43:46;20.50;1.00
20438;DHT22;17436;50.338;8.810;2022-07-10T11:46:12;20.60;1.00
20438;DHT22;17436;50.338;8.810;2022-07-10T11:48:39;20.70;1.00
20438;DHT22;17436;50.338;8.810;2022-07-10T11:51:23;21.00;1.00
20438;DHT22;17436;50.338;8.810;2022-07-10T11:53:58;20.80;1.00
20438;DHT22;17436;50.338;8.810;2022-07-10T11:56:26;20.70;1.00
20438;DHT22;17436;50.338;8.810;2022-07-10T11:59:01;20.70;1.00
20438;DHT22;17436;50.338;8.810;2022-07-10T12:07:24;20.60;1.00
20438;DHT22;17436;50.338;8.810;2022-07-10T12:10:10;20.70;1.00
20438;DHT22;17436;50.338;8.810;2022-07-10T12:12:44;20.80;1.00
20438;DHT22;17436;50.338;8.810;2022-07-10T12:15:10;20.70;1.00
20438;DHT22;17436;50.338;8.810;2022-07-10T12:17:49;20.70;1.00
20438;DHT22;17436;50.338;8.810;2022-07-10T12:20:17;20.70;1.00
20438;DHT22;17436;50.338;8.810;2022-07-10T12:22:45;20.70;1.00
20438;DHT22;17436;50.338;8.810;2022-07-10T12:25:12;20.50;1.00
20438;DHT22;17436;50.338;8.810;2022-07-10T12:27:39;20.60;1.00
20438;DHT22;17436;50.338;8.810;2022-07-10T12:30:07;20.40;1.00
20438;DHT22;17436;50.338;8.810;2022-07-10T12:32:33;20.50;1.00
20438;DHT22;17436;50.338;8.810;2022-07-10T12:35:00;20.60;1.00
20438;DHT22;17436;50.338;8.810;2022-07-10T12:37:28;20.70;1.00
20438;DHT22;17436;50.338;8.810;2022-07-10T12:39:56;20.50;1.00
20438;DHT22;17436;50.338;8.810;2022-07-10T12:42:25;20.60;1.00
20438;DHT22;17436;50.338;8.810;2022-07-10T12:44:51;20.50;1.00
20438;DHT22;17436;50.338;8.810;2022-07-10T12:47:19;20.60;1.00
20438;DHT22;17436;50.338;8.810;2022-07-10T12:49:51;20.70;1.00
20438;DHT22;17436;50.338;8.810;2022-07-10T12:52:26;20.90;1.00
20438;DHT22;17436;50.338;8.810;2022-07-10T12:55:08;21.20;1.00
20438;DHT22;17436;50.338;8.810;2022-07-10T12:57:48;21.10;1.00
20438;DHT22;17436;50.338;8.810;2022-07-10T13:00:16;21.00;1.00
20438;DHT22;17436;50.338;8.810;2022-07-10T13:02:44;21.00;1.00
20438;DHT22;17436;50.338;8.810;2022-07-10T13:05:11;20.90;1.00
20438;DHT22;17436;50.338;8.810;2022-07-10T13:07:51;20.80;1.00
20438;DHT22;17436;50.338;8.810;2022-07-10T13:10:20;20.90;1.00
20438;DHT22;17436;50.338;8.810;2022-07-10T13:12:46;20.90;1.00
20438;DHT22;17436;50.338;8.810;2022-07-10T13:15:13;20.90;1.00
20438;DHT22;17436;50.338;8.810;2022-07-10T13:17:48;20.70;1.00
20438;DHT22;17436;50.338;8.810;2022-07-10T13:20:16;20.80;1.00
20438;DHT22;17436;50.338;8.810;2022-07-10T13:22:42;20.70;1.00
20438;DHT22;17436;50.338;8.810;2022-07-10T13:25:09;20.70;1.00
20438;DHT22;17436;50.338;8.810;2022-07-10T13:27:37;20.70;1.00
20438;DHT22;17436;50.338;8.810;2022-07-10T13:30:05;20.70;1.00
20438;DHT22;17436;50.338;8.810;2022-07-10T13:32:32;20.80;1.00
20438;DHT22;17436;50.338;8.810;2022-07-10T13:34:59;20.80;1.00
20438;DHT22;17436;50.338;8.810;2022-07-10T13:37:27;20.80;1.00
20438;DHT22;17436;50.338;8.810;2022-07-10T13:39:55;20.80;1.00
20438;DHT22;17436;50.338;8.810;2022-07-10T13:42:22;20.80;1.00
20438;DHT22;17436;50.338;8.810;2022-07-10T13:44:50;20.80;1.00
20438;DHT22;17436;50.338;8.810;2022-07-10T13:47:17;20.80;1.00
20438;DHT22;17436;50.338;8.810;2022-07-10T13:49:45;20.80;1.00
20438;DHT22;17436;50.338;8.810;2022-07-10T13:52:12;20.80;1.00
20438;DHT22;17436;50.338;8.810;2022-07-10T13:54:39;20.70;1.00
20438;DHT22;17436;50.338;8.810;2022-07-10T13:57:06;20.80;1.00
20438;DHT22;17436;50.338;8.810;2022-07-10T13:59:33;20.70;1.00
20438;DHT22;17436;50.338;8.810;2022-07-10T14:02:01;20.70;1.00
20438;DHT22;17436;50.338;8.810;2022-07-10T14:04:28;20.80;1.00
20438;DHT22;17436;50.338;8.810;2022-07-10T14:06:55;20.80;1.00
20438;DHT22;17436;50.338;8.810;2022-07-10T14:09:22;20.90;1.00
20438;DHT22;17436;50.338;8.810;2022-07-10T14:11:50;21.00;1.00
20438;DHT22;17436;50.338;8.810;2022-07-10T14:14:17;21.00;1.00
20438;DHT22;17436;50.338;8.810;2022-07-10T14:16:43;20.90;1.00
20438;DHT22;17436;50.338;8.810;2022-07-10T14:19:12;21.00;1.00
20438;DHT22;17436;50.338;8.810;2022-07-10T14:21:40;21.20;1.00
20438;DHT22;17436;50.338;8.810;2022-07-10T14:24:07;21.20;1.00
20438;DHT22;17436;50.338;8.810;2022-07-10T14:26:34;21.30;1.00
20438;DHT22;17436;50.338;8.810;2022-07-10T14:29:02;21.30;1.00
20438;DHT22;17436;50.338;8.810;2022-07-10T14:31:28;21.20;1.00
20438;DHT22;17436;50.338;8.810;2022-07-10T14:33:55;21.40;1.00
20438;DHT22;17436;50.338;8.810;2022-07-10T14:36:23;21.40;1.00
20438;DHT22;17436;50.338;8.810;2022-07-10T14:38:52;21.30;1.00
20438;DHT22;17436;50.338;8.810;2022-07-10T14:41:19;21.30;1.00
20438;DHT22;17436;50.338;8.810;2022-07-10T14:43:46;21.40;1.00
20438;DHT22;17436;50.338;8.810;2022-07-10T14:46:13;21.40;1.00
20438;DHT22;17436;50.338;8.810;2022-07-10T14:48:39;21.30;1.00
20438;DHT22;17436;50.338;8.810;2022-07-10T14:51:06;21.30;1.00
20438;DHT22;17436;50.338;8.810;2022-07-10T14:53:35;21.30;1.00
20438;DHT22;17436;50.338;8.810;2022-07-10T14:56:03;21.20;1.00
20438;DHT22;17436;50.338;8.810;2022-07-10T14:58:30;21.20;1.00
20438;DHT22;17436;50.338;8.810;2022-07-10T15:00:56;21.20;1.00
20438;DHT22;17436;50.338;8.810;2022-07-10T15:03:24;21.20;1.00
20438;DHT22;17436;50.338;8.810;2022-07-10T15:05:52;21.20;1.00
20438;DHT22;17436;50.338;8.810;2022-07-10T15:08:19;21.20;1.00
20438;DHT22;17436;50.338;8.810;2022-07-10T15:10:47;21.20;1.00
20438;DHT22;17436;50.338;8.810;2022-07-10T15:13:14;21.00;1.00
20438;DHT22;17436;50.338;8.810;2022-07-10T15:15:42;21.00;1.00
20438;DHT22;17436;50.338;8.810;2022-07-10T15:18:09;20.80;1.00
20438;DHT22;17436;50.338;8.810;2022-07-10T15:20:36;20.90;1.00
20438;DHT22;17436;50.338;8.810;2022-07-10T15:23:03;21.00;1.00
20438;DHT22;17436;50.338;8.810;2022-07-10T15:25:30;21.00;1.00
20438;DHT22;17436;50.338;8.810;2022-07-10T15:27:58;21.10;1.00
20438;DHT22;17436;50.338;8.810;2022-07-10T15:30:27;21.00;1.00
20438;DHT22;17436;50.338;8.810;2022-07-10T15:32:54;21.10;1.00
20438;DHT22;17436;50.338;8.810;2022-07-10T15:35:22;21.00;1.00
20438;DHT22;17436;50.338;8.810;2022-07-10T15:37:49;21.00;1.00
20438;DHT22;17436;50.338;8.810;2022-07-10T15:40:16;21.10;1.00
20438;DHT22;17436;50.338;8.810;2022-07-10T15:42:43;21.10;1.00
20438;DHT22;17436;50.338;8.810;2022-07-10T15:45:12;20.90;1.00
20438;DHT22;17436;50.338;8.810;2022-07-10T15:47:38;21.00;1.00
20438;DHT22;17436;50.338;8.810;2022-07-10T15:50:06;21.00;1.00
20438;DHT22;17436;50.338;8.810;2022-07-10T15:52:33;21.00;1.00